Time;durP1;ratioP1;P1;durP2;ratioP2;P2;SDS_P1;SDS_P2;PMS_P1;PMS_P2;Temp;Humidity;BMP_temperature;BMP_pressure;BME280_temperature;BME280_humidity;BME280_pressure;Samples;Min_cycle;Max_cycle;Signal;HPM_P1;HPM_P2
2022/09/07 00:02:08;;;;;;;9.00;6.03;;;;;;;17.54;98.71;101230.03;5110301;28;20035;-79
2022/09/07 00:04:33;;;;;;;8.82;6.13;;;;;;;17.47;98.26;101228.94;5107946;28;20085;-77
2022/09/07 00:06:59;;;;;;;5.45;4.88;;;;;;;17.40;97.66;101224.38;5093523;28;20020;-78
2022/09/07 00:09:24;;;;;;;8.50;5.32;;;;;;;17.21;97.29;101217.31;5090796;28;20547;-77
2022/09/07 00:11:49;;;;;;;5.72;4.82;;;;;;;17.16;98.63;101211.59;5107594;28;20027;-78
2022/09/07 00:14:15;;;;;;;6.70;4.30;;;;;;;17.14;97.82;101194.97;5110446;28;20088;-80
2022/09/07 00:16:40;;;;;;;6.18;4.22;;;;;;;17.08;98.83;101191.06;5109713;28;20040;-77
2022/09/07 00:19:05;;;;;;;7.00;4.70;;;;;;;17.03;98.34;101197.81;5109467;28;20043;-77
2022/09/07 00:21:31;;;;;;;9.13;5.00;;;;;;;17.01;99.49;101202.44;5110402;28;20372;-77
2022/09/07 00:23:56;;;;;;;7.30;5.15;;;;;;;16.91;99.31;101200.66;5102125;28;20036;-77
2022/09/07 00:26:28;;;;;;;9.32;5.80;;;;;;;16.89;100.00;101202.63;5108687;28;20034;-77
2022/09/07 00:28:59;;;;;;;8.07;5.55;;;;;;;16.73;99.31;101199.72;5110583;28;20031;-77
2022/09/07 00:31:26;;;;;;;11.38;6.30;;;;;;;16.74;99.47;101201.41;5111020;28;20103;-80
2022/09/07 00:33:52;;;;;;;8.93;6.30;;;;;;;16.60;98.93;101196.53;5111098;28;20024;-77
2022/09/07 00:36:19;;;;;;;9.80;6.22;;;;;;;16.53;99.29;101192.78;5111860;28;20019;-78
2022/09/07 00:38:45;;;;;;;8.50;6.80;;;;;;;16.53;99.65;101188.31;5110839;28;20058;-78
2022/09/07 00:41:12;;;;;;;9.32;7.40;;;;;;;16.42;99.53;101175.19;5103436;28;20136;-78
2022/09/07 00:43:50;;;;;;;8.65;6.65;;;;;;;16.33;99.98;101175.19;5111679;28;20047;-78
2022/09/07 00:46:25;;;;;;;8.48;6.85;;;;;;;16.34;100.00;101168.91;5111250;28;20031;-78
2022/09/07 00:49:02;;;;;;;8.35;6.65;;;;;;;16.28;100.00;101162.34;5110697;28;20074;-78
2022/09/07 00:51:34;;;;;;;9.77;7.53;;;;;;;16.22;100.00;101153.13;5111260;28;20023;-78
2022/09/07 00:54:04;;;;;;;9.50;6.47;;;;;;;16.14;100.00;101144.22;5109784;28;20019;-78
2022/09/07 00:56:35;;;;;;;10.88;6.72;;;;;;;16.09;100.00;101157.91;5104150;28;20119;-78
2022/09/07 00:59:01;;;;;;;8.85;6.72;;;;;;;16.13;100.00;101146.03;5110447;28;20035;-78
2022/09/07 01:01:26;;;;;;;7.95;6.22;;;;;;;16.06;100.00;101138.78;5108420;28;20031;-78
2022/09/07 01:03:54;;;;;;;7.97;6.13;;;;;;;16.10;100.00;101151.63;5108970;28;20032;-78
2022/09/07 01:06:24;;;;;;;7.57;6.78;;;;;;;16.18;100.00;101161.53;5104711;28;20032;-77
2022/09/07 01:08:50;;;;;;;9.13;6.55;;;;;;;16.13;100.00;101154.00;5096727;28;20082;-78
2022/09/07 01:11:20;;;;;;;8.80;6.40;;;;;;;16.14;100.00;101152.19;5101693;28;20032;-77
2022/09/07 01:13:47;;;;;;;7.20;6.20;;;;;;;16.15;100.00;101151.19;5095881;28;20111;-75
2022/09/07 01:16:35;;;;;;;6.53;5.93;;;;;;;16.15;100.00;101152.03;5107351;28;20023;-74
2022/09/07 01:19:26;;;;;;;8.35;5.93;;;;;;;16.15;100.00;101160.00;5103092;28;20034;-75
2022/09/07 01:22:21;;;;;;;6.53;5.22;;;;;;;16.12;100.00;101152.31;5092996;28;20537;-75
2022/09/07 01:25:12;;;;;;;9.48;5.68;;;;;;;16.14;100.00;101150.34;5094946;28;20484;-75
2022/09/07 01:27:56;;;;;;;6.47;5.32;;;;;;;16.14;100.00;101150.34;5098122;28;20071;-75
2022/09/07 01:30:23;;;;;;;7.00;5.45;;;;;;;16.04;100.00;101154.84;5099102;28;20046;-75
2022/09/07 01:32:57;;;;;;;7.70;5.57;;;;;;;16.14;100.00;101165.44;5109283;28;20027;-75
2022/09/07 01:35:54;;;;;;;6.95;5.53;;;;;;;16.06;100.00;101152.88;5109366;28;20028;-75
2022/09/07 01:38:30;;;;;;;8.32;5.80;;;;;;;16.06;100.00;101162.66;5106975;28;20134;-75
2022/09/07 01:41:14;;;;;;;6.75;5.25;;;;;;;16.05;100.00;101161.84;5108853;28;20030;-76
2022/09/07 01:43:52;;;;;;;6.65;5.38;;;;;;;16.07;100.00;101159.88;5088281;28;20688;-78
2022/09/07 01:46:28;;;;;;;5.85;4.80;;;;;;;16.06;100.00;101157.34;5091701;28;20028;-78
2022/09/07 01:49:05;;;;;;;7.30;5.68;;;;;;;15.99;100.00;101155.25;5100598;28;20035;-75
2022/09/07 01:51:34;;;;;;;6.28;5.20;;;;;;;15.96;100.00;101149.38;5107241;28;20387;-78
2022/09/07 01:54:09;;;;;;;7.50;5.63;;;;;;;15.96;100.00;101147.56;5098174;28;20084;-79
2022/09/07 01:56:43;;;;;;;7.40;5.50;;;;;;;16.00;100.00;101161.38;5100929;28;20024;-77
2022/09/07 01:59:16;;;;;;;5.95;5.35;;;;;;;16.01;100.00;101163.09;5100965;28;20151;-80
2022/09/07 02:01:59;;;;;;;6.35;5.60;;;;;;;15.94;100.00;101154.00;5103432;28;20098;-78
2022/09/07 02:04:38;;;;;;;6.32;4.82;;;;;;;15.94;100.00;101159.31;5094328;28;20035;-78
2022/09/07 02:07:19;;;;;;;6.05;5.00;;;;;;;15.87;100.00;101158.19;5109501;28;20061;-78
2022/09/07 02:09:53;;;;;;;9.10;5.32;;;;;;;15.87;100.00;101148.41;5102983;28;20027;-78
2022/09/07 02:12:50;;;;;;;7.20;5.75;;;;;;;15.92;100.00;101155.94;5109034;28;20023;-78
2022/09/07 02:15:20;;;;;;;6.55;5.40;;;;;;;15.93;100.00;101157.63;5088207;28;20125;-78
2022/09/07 02:17:54;;;;;;;6.43;5.30;;;;;;;15.91;100.00;101154.28;5095951;28;20047;-78
2022/09/07 02:20:35;;;;;;;6.93;5.43;;;;;;;15.93;100.00;101152.31;5103612;28;20774;-78
2022/09/07 02:23:05;;;;;;;7.38;5.78;;;;;;;15.95;100.00;101153.84;5087197;28;20103;-78
2022/09/07 02:25:44;;;;;;;7.38;5.43;;;;;;;15.96;100.00;101154.69;5087699;28;20531;-78
2022/09/07 02:28:34;;;;;;;7.38;5.50;;;;;;;15.96;100.00;101152.03;5108116;28;20024;-75
2022/09/07 02:31:00;;;;;;;5.82;5.22;;;;;;;15.92;100.00;101150.66;5103259;28;20089;-75
2022/09/07 02:33:27;;;;;;;6.00;5.38;;;;;;;15.94;100.00;101152.19;5087485;28;20028;-75
2022/09/07 02:35:52;;;;;;;7.40;5.65;;;;;;;15.97;100.00;101149.25;5086786;28;20023;-78
2022/09/07 02:38:18;;;;;;;6.93;5.38;;;;;;;16.00;100.00;101148.13;5088368;28;20027;-79
2022/09/07 02:40:59;;;;;;;7.97;5.38;;;;;;;15.96;100.00;101157.34;5087544;28;20020;-79
2022/09/07 02:43:26;;;;;;;8.38;5.57;;;;;;;16.00;100.00;101158.72;5095085;28;20043;-79
2022/09/07 02:46:17;;;;;;;6.50;5.82;;;;;;;16.00;100.00;101153.44;5108454;28;20399;-79
2022/09/07 02:49:01;;;;;;;6.47;4.90;;;;;;;15.93;100.00;101154.97;5107806;28;20024;-79
2022/09/07 02:52:00;;;;;;;6.07;5.38;;;;;;;15.93;100.00;101147.00;5108125;28;20032;-79
2022/09/07 02:54:28;;;;;;;7.43;5.13;;;;;;;15.86;100.00;101143.25;5107763;28;20028;-79
2022/09/07 02:57:08;;;;;;;5.53;4.90;;;;;;;15.91;100.00;101148.97;5089649;28;20735;-80
2022/09/07 02:59:52;;;;;;;7.97;5.60;;;;;;;15.92;100.00;101153.31;5098316;28;20031;-80
2022/09/07 03:02:19;;;;;;;7.85;6.05;;;;;;;15.91;100.00;101154.28;5106118;28;20019;-80
2022/09/07 03:04:55;;;;;;;6.60;6.00;;;;;;;15.95;100.00;101171.59;5108344;28;20165;-74
2022/09/07 03:07:33;;;;;;;8.60;5.95;;;;;;;15.97;100.00;101164.31;5109011;28;20016;-75
2022/09/07 03:10:04;;;;;;;6.88;6.03;;;;;;;15.94;100.00;101167.25;5108531;28;20035;-75
2022/09/07 03:12:47;;;;;;;8.15;6.15;;;;;;;15.96;100.00;101163.50;5108840;28;20502;-77
2022/09/07 03:15:15;;;;;;;7.30;5.93;;;;;;;15.89;100.00;101166.84;5100824;28;20501;-77
2022/09/07 03:17:42;;;;;;;7.90;6.30;;;;;;;15.87;100.00;101152.88;5108346;28;20026;-78
2022/09/07 03:20:08;;;;;;;6.50;5.90;;;;;;;15.84;100.00;101142.56;5108300;28;20039;-75
2022/09/07 03:22:33;;;;;;;8.05;6.55;;;;;;;15.85;100.00;101146.88;5108360;28;20030;-75
2022/09/07 03:24:59;;;;;;;6.82;6.10;;;;;;;15.80;100.00;101143.81;5108578;28;20044;-75
2022/09/07 03:27:25;;;;;;;6.72;5.85;;;;;;;15.84;100.00;101143.38;5109133;28;20032;-75
2022/09/07 03:29:50;;;;;;;6.80;6.10;;;;;;;15.85;100.00;101147.72;5109267;28;20039;-75
2022/09/07 03:32:15;;;;;;;10.65;6.75;;;;;;;15.82;100.00;101160.44;5098472;28;20355;-75
2022/09/07 03:34:41;;;;;;;7.35;6.18;;;;;;;15.81;100.00;101143.66;5110100;28;20165;-75
2022/09/07 03:37:06;;;;;;;6.95;6.28;;;;;;;15.78;100.00;101143.97;5110322;28;20032;-75
2022/09/07 03:39:31;;;;;;;8.40;6.70;;;;;;;15.79;100.00;101142.97;5111623;28;20384;-75
2022/09/07 03:41:57;;;;;;;7.13;6.28;;;;;;;15.80;100.00;101147.31;5111094;28;20046;-75
2022/09/07 03:44:22;;;;;;;7.85;7.07;;;;;;;15.84;100.00;101153.16;5110758;28;20024;-78
2022/09/07 03:46:47;;;;;;;8.93;6.70;;;;;;;15.76;100.00;101159.19;5111764;28;20043;-75
2022/09/07 03:49:14;;;;;;;8.82;6.97;;;;;;;15.74;100.00;101157.63;5103904;28;20020;-78
2022/09/07 03:51:39;;;;;;;9.45;7.22;;;;;;;15.70;100.00;101150.94;5089828;28;20039;-78
2022/09/07 03:54:05;;;;;;;9.40;7.28;;;;;;;15.70;100.00;101150.94;5093387;28;20024;-75
2022/09/07 03:56:31;;;;;;;9.48;7.25;;;;;;;15.72;100.00;101144.50;5090817;28;20564;-75
2022/09/07 03:58:59;;;;;;;10.02;7.32;;;;;;;15.66;100.00;101134.47;5109991;28;20551;-75
2022/09/07 04:01:25;;;;;;;10.55;7.72;;;;;;;15.62;100.00;101125.13;5109531;28;20472;-76
2022/09/07 04:03:52;;;;;;;10.82;7.93;;;;;;;15.66;100.00;101123.84;5110549;28;20034;-77
2022/09/07 04:06:18;;;;;;;11.23;8.05;;;;;;;15.62;100.00;101123.31;5097011;28;20863;-74
2022/09/07 04:08:44;;;;;;;12.90;7.72;;;;;;;15.69;100.00;101107.66;5106133;28;20024;-76
2022/09/07 04:11:12;;;;;;;11.20;7.53;;;;;;;15.74;100.00;101112.53;5110462;28;20393;-76
2022/09/07 04:13:38;;;;;;;10.48;7.47;;;;;;;15.72;100.00;101107.38;5112323;28;20027;-76
2022/09/07 04:16:16;;;;;;;10.38;7.93;;;;;;;15.72;100.00;101107.38;5110072;28;20023;-76
2022/09/07 04:18:42;;;;;;;9.30;7.80;;;;;;;15.73;100.00;101100.25;5111252;28;20083;-76
2022/09/07 04:21:08;;;;;;;9.13;8.23;;;;;;;15.65;100.00;101099.16;5110917;28;20046;-77
2022/09/07 04:23:36;;;;;;;10.50;7.97;;;;;;;15.63;100.00;101094.97;5108979;28;20034;-79
2022/09/07 04:26:02;;;;;;;9.75;8.13;;;;;;;15.59;100.00;101089.06;5090248;28;20533;-79
2022/09/07 04:28:27;;;;;;;8.55;7.75;;;;;;;15.71;100.00;101104.88;5109247;28;20035;-80
2022/09/07 04:30:52;;;;;;;8.70;7.80;;;;;;;15.65;100.00;101120.38;5111546;28;20035;-79
2022/09/07 04:33:18;;;;;;;9.85;8.85;;;;;;;15.62;100.00;101122.47;5110778;28;20111;-79
2022/09/07 04:35:43;;;;;;;10.30;7.65;;;;;;;15.65;100.00;101117.72;5111973;28;20024;-80
2022/09/07 04:38:13;;;;;;;9.38;8.38;;;;;;;15.62;100.00;101131.25;5108565;28;20024;-79
2022/09/07 04:40:38;;;;;;;11.82;8.18;;;;;;;15.56;100.00;101117.66;5106839;28;20102;-77
2022/09/07 04:43:04;;;;;;;11.07;8.57;;;;;;;15.56;100.00;101113.19;5092626;27;20047;-77
2022/09/07 04:45:30;;;;;;;10.02;8.52;;;;;;;15.55;100.00;101116.81;5089849;28;20077;-77
2022/09/07 04:47:55;;;;;;;10.00;8.85;;;;;;;15.55;100.00;101121.28;5089211;28;20376;-77
2022/09/07 04:50:23;;;;;;;9.25;8.20;;;;;;;15.59;100.00;101115.59;5107560;28;20034;-77
2022/09/07 04:52:48;;;;;;;10.40;8.63;;;;;;;15.56;100.00;101112.34;5110014;28;20032;-78
2022/09/07 04:55:13;;;;;;;10.05;8.88;;;;;;;15.60;100.00;101111.13;5109074;28;20039;-78
2022/09/07 04:57:39;;;;;;;15.93;9.65;;;;;;;15.58;100.00;101116.56;5104769;28;20032;-75
2022/09/07 05:00:07;;;;;;;12.02;9.20;;;;;;;15.58;100.00;101115.72;5103424;28;20028;-77
2022/09/07 05:02:32;;;;;;;11.25;9.27;;;;;;;15.60;100.00;101119.09;5109811;28;20110;-78
2022/09/07 05:04:58;;;;;;;11.70;10.02;;;;;;;15.58;100.00;101116.56;5109595;28;20391;-75
2022/09/07 05:07:23;;;;;;;11.10;9.52;;;;;;;15.60;100.00;101111.97;5090759;28;20024;-75
2022/09/07 05:09:48;;;;;;;11.55;9.05;;;;;;;15.55;100.00;101106.22;5110441;28;20081;-77
2022/09/07 05:12:14;;;;;;;10.80;9.60;;;;;;;15.60;100.00;101108.47;5107513;28;20468;-79
2022/09/07 05:14:39;;;;;;;13.15;10.15;;;;;;;15.61;100.00;101102.22;5106382;28;20537;-74
2022/09/07 05:17:04;;;;;;;16.40;10.50;;;;;;;15.64;100.00;101104.59;5101057;28;20055;-76
2022/09/07 05:19:30;;;;;;;12.98;10.45;;;;;;;15.59;100.00;101102.34;5109832;28;20019;-76
2022/09/07 05:21:58;;;;;;;11.15;10.05;;;;;;;15.62;100.00;101110.03;5108421;28;20028;-76
2022/09/07 05:24:25;;;;;;;11.57;9.27;;;;;;;15.68;100.00;101108.63;5108283;28;20019;-76
2022/09/07 05:26:54;;;;;;;15.65;10.73;;;;;;;15.63;100.00;101108.22;5109046;28;20020;-76
2022/09/07 05:29:19;;;;;;;15.02;11.13;;;;;;;15.68;100.00;101111.28;5109877;28;20239;-76
2022/09/07 05:31:45;;;;;;;13.38;11.02;;;;;;;15.70;100.00;101111.16;5108588;28;20522;-76
2022/09/07 05:34:10;;;;;;;18.45;12.38;;;;;;;15.68;100.00;101110.44;5096436;28;20031;-76
2022/09/07 05:36:37;;;;;;;13.82;11.02;;;;;;;15.66;100.00;101114.09;5108076;28;20063;-76
2022/09/07 05:39:04;;;;;;;14.27;11.25;;;;;;;15.75;100.00;101116.88;5108114;28;20019;-76
2022/09/07 05:41:29;;;;;;;13.40;11.95;;;;;;;15.74;100.00;101117.84;5110455;28;20110;-76
2022/09/07 05:43:54;;;;;;;14.65;12.48;;;;;;;15.77;100.00;101120.22;5108805;28;20118;-75
2022/09/07 05:46:20;;;;;;;15.32;13.10;;;;;;;15.77;100.00;101117.56;5109721;28;20032;-76
2022/09/07 05:48:46;;;;;;;15.00;12.95;;;;;;;15.79;100.00;101112.94;5104812;28;20034;-74
2022/09/07 05:51:12;;;;;;;15.60;13.35;;;;;;;15.78;100.00;101119.25;5105661;28;20031;-74
2022/09/07 05:53:41;;;;;;;15.32;13.15;;;;;;;15.77;100.00;101120.22;5108767;27;20016;-75
2022/09/07 05:56:07;;;;;;;15.40;13.60;;;;;;;15.80;100.00;101114.63;5090966;28;20027;-75
2022/09/07 05:58:34;;;;;;;17.50;14.40;;;;;;;15.82;100.00;101136.56;5106393;28;20542;-75
2022/09/07 06:01:05;;;;;;;17.50;14.10;;;;;;;15.83;100.00;101135.56;5096189;28;20483;-75
2022/09/07 06:03:31;;;;;;;16.02;14.32;;;;;;;15.81;100.00;101142.84;5105499;28;20033;-75
2022/09/07 06:06:07;;;;;;;15.88;14.20;;;;;;;15.80;100.00;101146.47;5105669;28;20062;-75
2022/09/07 06:08:34;;;;;;;15.75;14.15;;;;;;;15.77;100.00;101146.75;5106362;28;20078;-75
2022/09/07 06:11:08;;;;;;;15.73;13.85;;;;;;;15.79;100.00;101137.66;5107319;28;20475;-75
2022/09/07 06:13:34;;;;;;;16.17;14.55;;;;;;;15.77;100.00;101141.44;5106900;28;20015;-75
2022/09/07 06:16:04;;;;;;;18.92;14.80;;;;;;;15.81;100.00;101146.31;5107995;28;20162;-75
2022/09/07 06:18:31;;;;;;;17.48;14.98;;;;;;;15.84;100.00;101140.75;5096350;28;20027;-76
2022/09/07 06:21:04;;;;;;;17.38;15.13;;;;;;;15.85;100.00;101133.63;5106825;28;20012;-75
2022/09/07 06:23:31;;;;;;;18.25;16.00;;;;;;;15.86;100.00;101151.22;5099255;28;20035;-75
2022/09/07 06:25:59;;;;;;;17.77;15.57;;;;;;;15.85;100.00;101152.19;5097044;28;20154;-75
2022/09/07 06:28:30;;;;;;;20.80;17.02;;;;;;;15.85;100.00;101152.19;5108136;28;20020;-75
2022/09/07 06:31:04;;;;;;;19.70;16.95;;;;;;;15.87;100.00;101158.19;5105047;28;20035;-75
2022/09/07 06:33:29;;;;;;;20.85;17.05;;;;;;;15.93;100.00;101150.50;5104331;28;20011;-75
2022/09/07 06:36:00;;;;;;;23.77;17.98;;;;;;;15.93;100.00;101154.97;5108978;28;20042;-75
2022/09/07 06:38:30;;;;;;;24.50;19.73;;;;;;;15.99;100.00;101157.06;5108719;28;20394;-78
2022/09/07 06:41:13;;;;;;;25.58;21.55;;;;;;;16.00;100.00;101164.03;5103212;28;20027;-79
2022/09/07 06:43:39;;;;;;;;;;;;;;;16.10;100.00;101162.25;5107831;28;20122;-78
2022/09/07 06:46:05;;;;;;;28.20;23.15;;;;;;;16.10;100.00;101166.72;5106621;28;20032;-79
2022/09/07 06:48:31;;;;;;;27.55;24.55;;;;;;;16.13;100.00;101161.97;5109041;28;20379;-78
2022/09/07 06:51:02;;;;;;;29.83;25.63;;;;;;;16.20;100.00;101167.53;5108986;28;20030;-78
2022/09/07 06:53:35;;;;;;;31.20;27.00;;;;;;;16.24;100.00;101163.63;5107642;28;20110;-78
2022/09/07 06:56:04;;;;;;;33.80;27.55;;;;;;;16.34;100.00;101166.25;5108383;28;20031;-78
2022/09/07 06:58:30;;;;;;;37.95;29.10;;;;;;;16.41;100.00;101165.56;5104137;28;20050;-79
2022/09/07 07:00:55;;;;;;;37.15;32.00;;;;;;;16.46;100.00;101170.44;5099080;28;20057;-78
2022/09/07 07:03:21;;;;;;;39.72;31.58;;;;;;;16.53;100.00;101160.91;5110582;28;20382;-78
2022/09/07 07:05:54;;;;;;;38.65;32.50;;;;;;;16.58;100.00;101169.28;5110433;28;20126;-78
2022/09/07 07:08:21;;;;;;;43.38;34.92;;;;;;;16.65;100.00;101170.38;5110941;28;20023;-79
2022/09/07 07:10:47;;;;;;;40.92;35.53;;;;;;;16.74;100.00;101169.53;5111900;28;20027;-79
2022/09/07 07:13:13;;;;;;;43.22;36.42;;;;;;;16.85;100.00;101177.34;5108095;28;20042;-78
2022/09/07 07:15:38;;;;;;;42.80;36.28;;;;;;;16.88;100.00;101173.53;5105703;28;20023;-78
2022/09/07 07:18:03;;;;;;;44.63;37.03;;;;;;;17.07;100.00;101169.94;5105227;28;20484;-78
2022/09/07 07:20:29;;;;;;;45.42;38.40;;;;;;;17.19;100.00;101174.06;5111897;28;20022;-75
2022/09/07 07:22:54;;;;;;;43.90;36.92;;;;;;;17.32;100.00;101169.25;5109219;28;20066;-75
2022/09/07 07:25:20;;;;;;;45.67;37.67;;;;;;;17.47;100.00;101172.25;5111828;28;20020;-79
2022/09/07 07:27:45;;;;;;;41.58;36.22;;;;;;;17.66;100.00;101171.28;5110779;28;20020;-76
2022/09/07 07:30:13;;;;;;;39.92;35.83;;;;;;;17.77;100.00;101171.09;5106491;28;20495;-80
2022/09/07 07:32:39;;;;;;;38.22;34.10;;;;;;;17.76;100.00;101180.06;5101782;28;20028;-79
2022/09/07 07:35:06;;;;;;;37.13;32.42;;;;;;;17.68;100.00;101185.31;5090474;28;20024;-79
2022/09/07 07:37:32;;;;;;;35.60;31.52;;;;;;;17.61;100.00;101178.84;5091675;28;20066;-79
2022/09/07 07:39:57;;;;;;;36.40;32.45;;;;;;;17.60;100.00;101187.84;5090429;28;20027;-80
2022/09/07 07:42:22;;;;;;;34.83;31.23;;;;;;;17.75;100.00;101175.72;5099135;28;20071;-79
2022/09/07 07:44:48;;;;;;;31.83;28.73;;;;;;;17.75;100.00;101181.06;5099772;28;20541;-80
2022/09/07 07:47:13;;;;;;;32.85;29.42;;;;;;;17.87;100.00;101178.97;5105809;28;20484;-80
2022/09/07 07:49:38;;;;;;;32.33;28.88;;;;;;;17.98;100.00;101184.91;5094686;28;20534;-80
2022/09/07 07:52:05;;;;;;;31.90;28.50;;;;;;;18.10;100.00;101186.38;5093990;28;20024;-80
2022/09/07 07:54:34;;;;;;;30.42;27.20;;;;;;;18.33;99.49;101185.84;5101676;28;20026;-76
2022/09/07 07:57:00;;;;;;;28.77;25.90;;;;;;;18.40;98.29;101184.22;5108840;28;20043;-76
2022/09/07 07:59:25;;;;;;;26.73;24.23;;;;;;;18.43;97.13;101191.94;5092701;28;20036;-80
2022/09/07 08:01:50;;;;;;;27.73;24.83;;;;;;;18.36;97.51;101193.53;5108368;28;20027;-80
2022/09/07 08:04:16;;;;;;;27.42;24.80;;;;;;;18.27;98.04;101199.81;5111098;28;20047;-80
2022/09/07 08:06:42;;;;;;;28.65;25.15;;;;;;;18.34;97.80;101192.84;5106098;28;20030;-80
2022/09/07 08:09:07;;;;;;;27.55;24.75;;;;;;;18.47;97.36;101193.31;5102588;28;20027;-75
2022/09/07 08:11:34;;;;;;;27.77;24.83;;;;;;;18.62;96.88;101191.75;5109438;28;20019;-75
2022/09/07 08:14:01;;;;;;;26.90;24.20;;;;;;;18.76;95.58;101203.66;5110453;28;20027;-80
2022/09/07 08:16:26;;;;;;;26.15;23.65;;;;;;;18.99;94.47;101209.28;5102813;28;20020;-75
2022/09/07 08:18:52;;;;;;;26.27;23.58;;;;;;;19.11;94.51;101202.69;5110180;28;20028;-75
2022/09/07 08:21:18;;;;;;;24.30;21.77;;;;;;;19.28;93.35;101203.59;5109489;28;20387;-76
2022/09/07 08:23:43;;;;;;;23.88;21.52;;;;;;;19.51;91.57;101203.81;5110517;28;20027;-76
2022/09/07 08:26:09;;;;;;;24.42;21.63;;;;;;;19.67;91.38;101199.41;5108941;28;20096;-76
2022/09/07 08:28:36;;;;;;;22.85;19.98;;;;;;;19.77;89.35;101203.75;5110854;28;20039;-75
2022/09/07 08:31:07;;;;;;;22.30;20.00;;;;;;;19.84;88.63;101194.06;5109639;28;20031;-75
2022/09/07 08:33:36;;;;;;;22.55;20.25;;;;;;;19.96;87.45;101201.59;5108977;28;20076;-75
2022/09/07 08:36:16;;;;;;;22.23;20.00;;;;;;;20.15;88.23;101205.78;5109985;28;20152;-75
2022/09/07 08:38:41;;;;;;;20.00;17.67;;;;;;;20.38;85.87;101208.59;5109450;28;20035;-75
2022/09/07 08:41:48;;;;;;;21.05;18.98;;;;;;;20.57;87.68;101215.50;5110191;28;20027;-81
2022/09/07 08:44:19;;;;;;;21.42;16.98;;;;;;;20.87;84.97;101209.41;5110068;28;20050;-75
2022/09/07 08:46:54;;;;;;;19.13;17.23;;;;;;;21.16;85.31;101218.66;5108888;27;20539;-76
2022/09/07 08:49:32;;;;;;;19.63;17.55;;;;;;;21.37;84.84;101215.44;5110191;28;20077;-77
2022/09/07 08:52:18;;;;;;;16.98;15.27;;;;;;;21.47;81.73;101216.03;5107580;28;20038;-76
2022/09/07 08:54:52;;;;;;;17.45;15.75;;;;;;;21.46;78.74;101222.41;5111522;28;20081;-81
2022/09/07 08:57:25;;;;;;;16.73;15.05;;;;;;;21.49;79.27;101214.03;5111796;28;20012;-82
2022/09/07 09:00:26;;;;;;;14.82;13.40;;;;;;;21.65;79.86;101213.94;5111441;28;20024;-81
2022/09/07 09:02:55;;;;;;;14.45;12.95;;;;;;;21.87;77.47;101209.59;5081002;28;20068;-81
2022/09/07 09:05:30;;;;;;;14.25;12.85;;;;;;;22.13;76.55;101212.81;5100209;28;20034;-83
2022/09/07 09:08:33;;;;;;;13.52;11.80;;;;;;;22.24;78.27;101211.53;5107747;28;20028;-81
2022/09/07 09:11:16;;;;;;;14.10;12.73;;;;;;;22.25;75.57;101210.53;5109420;28;20360;-81
2022/09/07 09:14:00;;;;;;;14.38;12.82;;;;;;;22.29;76.08;101211.81;5109015;28;20201;-81
2022/09/07 09:16:38;;;;;;;13.48;12.05;;;;;;;22.25;76.85;101212.38;5111141;28;20038;-81
2022/09/07 09:19:14;;;;;;;12.52;10.35;;;;;;;22.36;72.74;101212.75;5109236;28;20390;-80
2022/09/07 09:21:41;;;;;;;14.60;10.48;;;;;;;22.19;72.16;101211.25;5110261;28;20076;-81
2022/09/07 09:24:18;;;;;;;10.70;8.95;;;;;;;22.13;73.70;101206.59;5109037;28;20406;-81
2022/09/07 09:26:59;;;;;;;11.35;9.38;;;;;;;21.94;73.50;101210.56;5110806;28;20050;-75
2022/09/07 09:29:24;;;;;;;12.88;8.43;;;;;;;22.16;73.18;101207.09;5109001;28;20026;-76
2022/09/07 09:31:50;;;;;;;12.52;8.15;;;;;;;22.25;73.05;101213.19;5111066;28;20031;-82
2022/09/07 09:34:17;;;;;;;10.88;7.50;;;;;;;22.43;70.59;101211.03;5108799;28;20012;-75
2022/09/07 09:36:45;;;;;;;9.95;7.40;;;;;;;22.49;68.31;101209.47;5091386;28;20043;-81
2022/09/07 09:39:30;;;;;;;9.50;7.70;;;;;;;22.59;71.54;101209.22;5087381;28;20024;-75
2022/09/07 09:42:13;;;;;;;8.80;6.22;;;;;;;22.59;69.04;101206.53;5087721;28;20028;-81
2022/09/07 09:44:39;;;;;;;10.52;5.80;;;;;;;22.65;67.57;101205.78;5088741;28;20115;-81
2022/09/07 09:47:06;;;;;;;9.32;5.20;;;;;;;22.74;66.90;101200.16;5088291;28;20074;-80
2022/09/07 09:49:37;;;;;;;9.93;3.90;;;;;;;22.83;66.37;101209.00;5088042;28;20020;-81
2022/09/07 09:52:04;;;;;;;11.93;4.65;;;;;;;22.85;65.51;101206.97;5107602;28;20031;-81
2022/09/07 09:54:39;;;;;;;11.07;5.28;;;;;;;22.93;65.71;101214.91;5109076;28;20102;-81
2022/09/07 09:57:05;;;;;;;8.55;4.93;;;;;;;23.10;64.88;101215.53;5107895;28;20034;-81
2022/09/07 09:59:33;;;;;;;8.88;4.47;;;;;;;23.13;64.51;101218.69;5108831;28;20008;-82
2022/09/07 10:02:00;;;;;;;9.88;4.40;;;;;;;23.11;65.28;101210.00;5108187;28;20440;-81
2022/09/07 10:04:30;;;;;;;9.43;3.70;;;;;;;23.37;63.80;101214.88;5108333;28;20027;-81
2022/09/07 10:07:05;;;;;;;10.70;3.40;;;;;;;23.28;62.67;101209.81;5102694;28;20028;-75
2022/09/07 10:09:39;;;;;;;6.90;3.20;;;;;;;23.17;62.07;101204.88;5108229;28;20099;-75
2022/09/07 10:12:06;;;;;;;8.80;3.17;;;;;;;23.23;62.07;101204.16;5108369;28;20479;-77
2022/09/07 10:14:45;;;;;;;7.28;2.58;;;;;;;23.55;62.35;101187.63;5107237;28;20027;-82
2022/09/07 10:17:33;;;;;;;7.22;2.72;;;;;;;23.82;62.73;101180.66;5107782;28;20471;-83
2022/09/07 10:20:18;;;;;;;8.73;2.83;;;;;;;24.02;61.79;101178.19;5108628;28;20475;-82
2022/09/07 10:22:50;;;;;;;7.93;2.72;;;;;;;24.15;59.56;101178.28;5108744;28;20463;-81
2022/09/07 10:25:35;;;;;;;8.20;2.70;;;;;;;24.17;61.17;101181.63;5100494;28;20031;-80
2022/09/07 10:28:00;;;;;;;6.57;2.30;;;;;;;24.25;59.92;101181.47;5106812;28;20483;-82
2022/09/07 10:30:26;;;;;;;6.10;2.28;;;;;;;24.46;59.89;101185.19;5108693;27;20055;-83
2022/09/07 10:33:07;;;;;;;6.38;2.25;;;;;;;24.53;59.50;101186.88;5107153;28;20047;-82
2022/09/07 10:35:40;;;;;;;6.03;2.00;;;;;;;24.56;57.89;101191.03;5108511;28;20104;-82
2022/09/07 10:38:27;;;;;;;5.72;2.22;;;;;;;24.50;56.83;101187.28;5097610;28;20438;-78
2022/09/07 10:41:06;;;;;;;8.18;2.00;;;;;;;24.53;56.45;101181.50;5113027;27;20035;-78
2022/09/07 10:43:44;;;;;;;8.18;2.28;;;;;;;24.61;57.07;101183.22;5106698;28;20058;-78
2022/09/07 10:46:32;;;;;;;12.43;2.35;;;;;;;24.59;55.91;101175.34;5110967;28;20480;-78
2022/09/07 10:49:18;;;;;;;8.48;2.17;;;;;;;24.89;56.84;101175.09;5112788;28;20020;-78
2022/09/07 10:51:49;;;;;;;6.90;2.00;;;;;;;24.69;55.76;101172.28;5108723;27;20372;-76
2022/09/07 10:54:32;;;;;;;6.68;2.40;;;;;;;24.47;54.74;101170.72;5112739;28;20053;-78
2022/09/07 10:57:28;;;;;;;8.73;2.35;;;;;;;24.49;55.44;101172.16;5106709;28;20035;-77
2022/09/07 11:00:14;;;;;;;6.15;1.90;;;;;;;24.29;55.40;101172.00;5110810;28;20080;-82
2022/09/07 11:03:01;;;;;;;4.97;2.10;;;;;;;24.09;55.13;101168.31;5113782;28;20027;-82
2022/09/07 11:05:32;;;;;;;10.25;2.08;;;;;;;23.88;55.10;101162.94;5113070;28;20027;-82
2022/09/07 11:08:26;;;;;;;6.40;2.38;;;;;;;23.90;56.74;101171.63;5109908;28;20023;-78
2022/09/07 11:11:07;;;;;;;6.80;2.33;;;;;;;24.17;56.10;101165.47;5103735;28;20475;-78
2022/09/07 11:13:36;;;;;;;9.60;2.60;;;;;;;24.06;55.06;101169.53;5111550;28;20023;-81
2022/09/07 11:16:10;;;;;;;7.75;2.20;;;;;;;24.19;55.39;101158.03;5111245;27;20445;-81
2022/09/07 11:18:43;;;;;;;7.32;2.28;;;;;;;24.52;56.08;101161.00;5111880;28;20023;-82
2022/09/07 11:21:16;;;;;;;7.68;2.70;;;;;;;24.75;55.48;101159.88;5110015;28;20047;-82
2022/09/07 11:23:43;;;;;;;;;;;;;;;24.88;55.82;101155.44;5112287;28;20038;-81
2022/09/07 11:26:20;;;;;;;5.22;2.35;;;;;;;24.72;54.91;101155.72;5109547;28;19919;-82
2022/09/07 11:28:51;;;;;;;7.75;2.60;;;;;;;24.86;53.28;101154.78;5111093;27;20024;-82
2022/09/07 11:31:22;;;;;;;9.65;3.00;;;;;;;25.02;54.19;101148.25;5111355;28;20027;-81
2022/09/07 11:34:15;;;;;;;6.63;2.63;;;;;;;25.14;53.28;101152.03;5110855;28;20027;-80